• Join FlightAware (Why Join?)
  • Login
  • US Flag 
11:39PM EDT


 

Airport Tracker/Info


-or-


 

Live Flight TrackerFlight Track Log ✈ CTL13 ✈ 02-May-2013 ✈ KEYE - KMDW

Flight Track Log - Related Links

Times and Time Zones

All times are in EDT time to prevent confusion due to time zone crossing. See the CTL13 flight status page for this flight to view local times or setup timezone preferences in your user account.

Time Position Orientation Groundspeed Altitude Reporting Facility
EDT Latitude Longitude Course Direction KTS MPH feet Rate Location/Type
08:18PM 39.8667 -86.2833 360° North 142 163 1,700  Level Indianapolis TRACON
08:19PM 39.8833 -86.2833 360° North 153 176 2,000 480 Climbing Indianapolis TRACON
08:20PM 39.9333 -86.3000 346° North 169 194 2,500 540 Climbing Indianapolis TRACON
08:21PM 39.9833 -86.2833 14° North 170 196 3,100 600 Climbing Indianapolis TRACON
08:22PM 40.0167 -86.2667 21° North 163 188 3,700 540 Climbing Indianapolis TRACON
08:24PM 40.1278 -86.2622 North 170 196 5,000 480 Climbing Indianapolis Center
08:25PM 40.1742 -86.2744 349° North 170 196 5,400 420 Climbing Indianapolis Center
08:26PM 40.2206 -86.2897 346° North 171 197 5,900 420 Climbing Indianapolis Center
08:26PM 40.2336 -86.2953 342° North 170 196 6,000 60 Climbing Chicago Center
08:27PM 40.2853 -86.3092 348° North 177 204 6,000  Level Chicago Center
08:28PM 40.3328 -86.3228 348° North 184 212 6,000  Level Chicago Center
08:29PM 40.3778 -86.3358 348° North 182 209 6,000  Level Chicago Center
08:30PM 40.4300 -86.3528 346° North 179 206 6,000  Level Chicago Center
08:31PM 40.4794 -86.3722 343° North 177 204 6,000  Level Chicago Center
08:32PM 40.5247 -86.3883 345° North 174 200 6,000  Level Chicago Center
08:33PM 40.5722 -86.4050 345° North 171 197 6,000  Level Chicago Center
08:34PM 40.6175 -86.4186 347° North 171 197 6,000  Level Chicago Center
08:35PM 40.6672 -86.4353 346° North 171 197 6,000 -60 Level Chicago Center
08:36PM 40.7103 -86.4514 344° North 172 198 5,900 -60 Descending Chicago Center
08:37PM 40.7600 -86.4681 346° North 175 201 5,900  Level Chicago Center
08:37PM 40.7717 -86.4700 353° North 176 203 5,900 60 Level Chicago Center
08:38PM 40.8056 -86.4792 348° North 174 200 6,000  Climbing Chicago Center
08:38PM 40.8194 -86.4819 351° North 175 201 5,900 -120 Descending Chicago Center
08:39PM 40.8547 -86.4986 340° North 176 203 5,900  Level Chicago Center
08:40PM 40.8669 -86.4992 358° North 177 204 5,900  Level Chicago Center
08:41PM 40.9128 -86.5172 343° North 175 201 5,900  Level Chicago Center
08:42PM 40.9600 -86.5350 344° North 176 203 6,000  Climbing Chicago Center
08:43PM 41.0153 -86.5656 337° Northwest 179 206 6,000  Level Chicago Center
08:44PM 41.0458 -86.6175 308° West 184 212 6,000  Level Chicago Center
08:45PM 41.0756 -86.6742 305° West 185 213 6,000  Level Chicago Center
08:46PM 41.1064 -86.7272 308° West 182 209 6,000  Level Chicago Center
08:47PM 41.1364 -86.7811 306° West 183 211 6,000  Level Chicago Center
08:48PM 41.1714 -86.8472 305° West 185 213 6,000  Level Chicago Center
08:49PM 41.2003 -86.9025 305° West 184 212 6,000  Level Chicago Center
08:50PM 41.2308 -86.9564 307° West 183 211 6,000 -60 Level Chicago Center
08:51PM 41.2597 -87.0106 305° West 182 209 5,900  Descending Chicago Center
08:52PM 41.2897 -87.0656 306° West 184 212 6,000  Climbing Chicago Center
08:53PM 41.3242 -87.1322 305° West 184 212 6,000  Level Chicago Center
08:54PM 41.3544 -87.1869 306° West 184 212 6,000 -360 Level Chicago Center
08:55PM 41.3864 -87.2464 306° West 191 220 5,300 -540 Descending Chicago Center
08:56PM 41.4208 -87.3100 306° West 208 239 4,900 -480 Descending Chicago Center
08:57PM 41.4550 -87.3711 307° West 208 239 4,400 -480 Descending Chicago Center
08:58PM 41.4944 -87.4453 305° West 207 238 4,000 -240 Descending Chicago Center
08:59PM 41.5278 -87.5047 307° West 204 235 4,000  Level Chicago Center
09:00PM 41.5594 -87.5614 307° West 199 229 4,000  Level Chicago Center
09:01PM 41.5783 -87.6228 292° West 195 224 4,000  Level Chicago Center
09:02PM 41.5750 -87.6894 266° West 187 215 4,000  Level Chicago Center
09:03PM 41.5714 -87.7717 267° West 186 214 4,000  Level Chicago Center
09:04PM 41.5669 -87.8397 265° West 186 214 4,000  Level Chicago Center
09:05PM 41.5706 -87.9056 274° West 192 221 4,000 -300 Level Chicago Center
09:06PM 41.5856 -87.9697 287° West 187 215 3,500 -540 Descending Chicago Center
09:07PM 41.6233 -87.9644 North 181 208 3,000 -540 Descending Chicago Center
09:08PM 41.6586 -87.9122 48° Northeast 164 189 2,400 -300 Descending Chicago Center
09:10PM 41.6867 -87.8769 43° Northeast 152 175 2,400  Level Chicago Center
09:10PM 41.7000 -87.8500 56° Northeast 134 154 2,400 -300 Level Chicago TRACON
09:11PM 41.7333 -87.8167 37° Northeast 112 129 2,000 -480 Descending Chicago TRACON
09:12PM 41.7500 -87.8000 37° Northeast 110 127 1,500 -600 Descending Chicago TRACON
09:13PM 41.7667 -87.7667 56° Northeast 103 119 900 -600 Descending Chicago TRACON